Silt, Colorado
Current Conditions -  °F | °C
As of 10:53 PM on Saturday 22 Nov 2014 (Local Time) from KRIL Reporting Station
Light Rain Light Rain  
Wind Chill: 34°   Ceiling: 7000
Heat Index: 34°   Visibility: 8mi
Dew Point: 32°   Wind: 3mph
Humidity: 92%   Direction: 10°N
Pressure: 29.78"   Gusts: NA
Location:  39.55°N, 107.66°W
Report Text: KRIL 230553Z AUTO 01003KT 8SM -RA FEW009 SCT019 OVC070 01/00 A2978 RMK AO2 RAB53 SLP084 P0000 60005 T00110000 10044 20006 58002
Loading
Personal Weather Stations






























Interactive Weather Map New forecast layout! Learn more

10-Day Weather Forecast

Advertisements
Track Severe Weather on mobile